sensor_id;sensor_type;location;lat;lon;timestamp;pressure;altitude;pressure_sealevel;temperature;humidity
4981;BME280;2507;50.392;7.482;2022-07-23T00:00:48;100864.56;;;22.06;64.76
4981;BME280;2507;50.392;7.482;2022-07-23T00:03:14;100860.38;;;22.04;64.54
4981;BME280;2507;50.392;7.482;2022-07-23T00:05:39;100867.81;;;21.94;64.97
4981;BME280;2507;50.392;7.482;2022-07-23T00:08:05;100861.22;;;22.04;64.58
4981;BME280;2507;50.392;7.482;2022-07-23T00:10:31;100870.09;;;22.05;64.40
4981;BME280;2507;50.392;7.482;2022-07-23T00:12:56;100873.59;;;22.05;64.23
4981;BME280;2507;50.392;7.482;2022-07-23T00:15:21;100880.59;;;22.06;63.70
4981;BME280;2507;50.392;7.482;2022-07-23T00:17:47;100884.88;;;22.15;63.58
4981;BME280;2507;50.392;7.482;2022-07-23T00:20:12;100877.09;;;22.06;63.30
4981;BME280;2507;50.392;7.482;2022-07-23T00:22:46;100874.81;;;21.95;63.23
4981;BME280;2507;50.392;7.482;2022-07-23T00:25:11;100876.69;;;21.78;64.93
4981;BME280;2507;50.392;7.482;2022-07-23T00:27:36;100876.91;;;21.69;64.19
4981;BME280;2507;50.392;7.482;2022-07-23T00:30:02;100873.28;;;21.54;64.32
4981;BME280;2507;50.392;7.482;2022-07-23T00:32:27;100875.66;;;21.49;65.29
4981;BME280;2507;50.392;7.482;2022-07-23T00:34:52;100880.63;;;21.60;65.18
4981;BME280;2507;50.392;7.482;2022-07-23T00:37:18;100891.44;;;21.74;64.15
4981;BME280;2507;50.392;7.482;2022-07-23T00:39:43;100885.88;;;21.84;64.00
4981;BME280;2507;50.392;7.482;2022-07-23T00:42:08;100881.38;;;21.84;63.66
4981;BME280;2507;50.392;7.482;2022-07-23T00:44:34;100874.88;;;21.79;63.81
4981;BME280;2507;50.392;7.482;2022-07-23T00:46:59;100865.44;;;21.99;62.95
4981;BME280;2507;50.392;7.482;2022-07-23T00:49:29;100874.59;;;22.04;62.94
4981;BME280;2507;50.392;7.482;2022-07-23T00:51:56;100879.47;;;22.01;63.12
4981;BME280;2507;50.392;7.482;2022-07-23T00:54:23;100875.13;;;22.00;63.50
4981;BME280;2507;50.392;7.482;2022-07-23T00:56:49;100877.19;;;21.90;63.14
4981;BME280;2507;50.392;7.482;2022-07-23T00:59:14;100874.19;;;21.85;63.12
4981;BME280;2507;50.392;7.482;2022-07-23T01:01:40;100872.56;;;21.68;63.92
4981;BME280;2507;50.392;7.482;2022-07-23T01:04:06;100869.88;;;21.68;64.37
4981;BME280;2507;50.392;7.482;2022-07-23T01:06:35;100871.84;;;21.90;63.46
4981;BME280;2507;50.392;7.482;2022-07-23T01:09:02;100873.44;;;21.99;62.96
4981;BME280;2507;50.392;7.482;2022-07-23T01:11:28;100871.81;;;21.98;62.73
4981;BME280;2507;50.392;7.482;2022-07-23T01:13:54;100875.66;;;21.95;63.01
4981;BME280;2507;50.392;7.482;2022-07-23T01:16:20;100872.88;;;21.81;63.62
4981;BME280;2507;50.392;7.482;2022-07-23T01:18:45;100856.53;;;21.68;63.68
4981;BME280;2507;50.392;7.482;2022-07-23T01:21:12;100854.94;;;21.51;63.90
4981;BME280;2507;50.392;7.482;2022-07-23T01:23:41;100857.63;;;21.43;64.03
4981;BME280;2507;50.392;7.482;2022-07-23T01:26:06;100856.13;;;21.40;64.33
4981;BME280;2507;50.392;7.482;2022-07-23T01:28:31;100848.63;;;21.44;64.18
4981;BME280;2507;50.392;7.482;2022-07-23T01:30:57;100852.94;;;21.53;63.85
4981;BME280;2507;50.392;7.482;2022-07-23T01:33:23;100856.91;;;21.57;63.79
4981;BME280;2507;50.392;7.482;2022-07-23T01:35:48;100850.22;;;21.61;63.72
4981;BME280;2507;50.392;7.482;2022-07-23T01:38:13;100856.59;;;21.52;63.95
4981;BME280;2507;50.392;7.482;2022-07-23T01:40:38;100852.59;;;21.48;64.18
4981;BME280;2507;50.392;7.482;2022-07-23T01:43:04;100853.25;;;21.50;63.55
4981;BME280;2507;50.392;7.482;2022-07-23T01:45:29;100849.25;;;21.54;63.39
4981;BME280;2507;50.392;7.482;2022-07-23T01:47:54;100840.72;;;21.58;63.40
4981;BME280;2507;50.392;7.482;2022-07-23T01:50:19;100837.41;;;21.56;63.52
4981;BME280;2507;50.392;7.482;2022-07-23T01:52:45;100832.06;;;21.48;63.73
4981;BME280;2507;50.392;7.482;2022-07-23T01:55:10;100838.38;;;21.55;63.84
4981;BME280;2507;50.392;7.482;2022-07-23T01:57:35;100843.00;;;21.69;63.25
4981;BME280;2507;50.392;7.482;2022-07-23T02:00:01;100846.03;;;21.66;62.94
4981;BME280;2507;50.392;7.482;2022-07-23T02:02:26;100847.72;;;21.59;63.70
4981;BME280;2507;50.392;7.482;2022-07-23T02:04:51;100837.53;;;21.63;63.00
4981;BME280;2507;50.392;7.482;2022-07-23T02:07:17;100847.72;;;21.59;62.74
4981;BME280;2507;50.392;7.482;2022-07-23T02:09:42;100852.59;;;21.56;63.26
4981;BME280;2507;50.392;7.482;2022-07-23T02:12:07;100850.28;;;21.45;63.54
4981;BME280;2507;50.392;7.482;2022-07-23T02:14:33;100849.63;;;21.43;63.49
4981;BME280;2507;50.392;7.482;2022-07-23T02:16:58;100853.81;;;21.45;63.65
4981;BME280;2507;50.392;7.482;2022-07-23T02:19:23;100854.28;;;21.49;63.34
4981;BME280;2507;50.392;7.482;2022-07-23T02:21:49;100833.91;;;21.48;62.67
4981;BME280;2507;50.392;7.482;2022-07-23T02:24:14;100840.22;;;21.55;62.81
4981;BME280;2507;50.392;7.482;2022-07-23T02:26:40;100839.16;;;21.72;62.28
4981;BME280;2507;50.392;7.482;2022-07-23T02:29:05;100837.03;;;21.59;62.32
4981;BME280;2507;50.392;7.482;2022-07-23T02:31:31;100839.91;;;21.58;62.38
4981;BME280;2507;50.392;7.482;2022-07-23T02:33:56;100835.09;;;21.45;62.60
4981;BME280;2507;50.392;7.482;2022-07-23T02:36:21;100840.66;;;21.27;63.15
4981;BME280;2507;50.392;7.482;2022-07-23T02:38:47;100845.50;;;21.32;63.93
4981;BME280;2507;50.392;7.482;2022-07-23T02:41:12;100848.50;;;21.29;63.53
4981;BME280;2507;50.392;7.482;2022-07-23T02:43:38;100849.38;;;21.21;63.75
4981;BME280;2507;50.392;7.482;2022-07-23T02:46:03;100851.84;;;21.23;64.04
4981;BME280;2507;50.392;7.482;2022-07-23T02:48:28;100852.03;;;21.21;63.76
4981;BME280;2507;50.392;7.482;2022-07-23T02:50:54;100857.56;;;21.20;63.40
4981;BME280;2507;50.392;7.482;2022-07-23T02:53:21;100854.88;;;21.20;63.71
4981;BME280;2507;50.392;7.482;2022-07-23T02:55:46;100857.56;;;21.12;63.86
4981;BME280;2507;50.392;7.482;2022-07-23T02:58:12;100864.56;;;21.05;64.50
4981;BME280;2507;50.392;7.482;2022-07-23T03:00:37;100864.53;;;21.13;63.80
4981;BME280;2507;50.392;7.482;2022-07-23T03:03:02;100859.41;;;21.03;64.38
4981;BME280;2507;50.392;7.482;2022-07-23T03:05:27;100858.03;;;20.91;64.56
4981;BME280;2507;50.392;7.482;2022-07-23T03:07:53;100851.22;;;20.73;65.30
4981;BME280;2507;50.392;7.482;2022-07-23T03:10:18;100847.56;;;20.58;65.88
4981;BME280;2507;50.392;7.482;2022-07-23T03:12:43;100847.41;;;20.59;65.82
4981;BME280;2507;50.392;7.482;2022-07-23T03:15:09;100851.38;;;20.71;65.35
4981;BME280;2507;50.392;7.482;2022-07-23T03:17:34;100855.91;;;20.71;65.40
4981;BME280;2507;50.392;7.482;2022-07-23T03:20:00;100862.06;;;20.55;65.58
4981;BME280;2507;50.392;7.482;2022-07-23T03:22:25;100852.91;;;20.50;65.73
4981;BME280;2507;50.392;7.482;2022-07-23T03:24:50;100860.41;;;20.38;65.41
4981;BME280;2507;50.392;7.482;2022-07-23T03:27:28;100856.06;;;20.29;66.49
4981;BME280;2507;50.392;7.482;2022-07-23T03:29:56;100860.06;;;20.25;66.61
4981;BME280;2507;50.392;7.482;2022-07-23T03:32:23;100859.03;;;20.18;66.65
4981;BME280;2507;50.392;7.482;2022-07-23T03:34:49;100858.97;;;20.10;67.00
4981;BME280;2507;50.392;7.482;2022-07-23T03:37:15;100860.44;;;19.96;67.64
4981;BME280;2507;50.392;7.482;2022-07-23T03:39:40;100862.91;;;19.82;68.36
4981;BME280;2507;50.392;7.482;2022-07-23T03:42:06;100863.03;;;19.80;68.43
4981;BME280;2507;50.392;7.482;2022-07-23T03:44:31;100870.75;;;19.83;68.66
4981;BME280;2507;50.392;7.482;2022-07-23T03:46:57;100868.53;;;19.79;68.80
4981;BME280;2507;50.392;7.482;2022-07-23T03:49:22;100867.84;;;19.69;69.20
4981;BME280;2507;50.392;7.482;2022-07-23T03:51:47;100871.59;;;19.58;69.95
4981;BME280;2507;50.392;7.482;2022-07-23T03:54:13;100877.59;;;19.52;70.09
4981;BME280;2507;50.392;7.482;2022-07-23T03:56:39;100880.28;;;19.60;69.80
4981;BME280;2507;50.392;7.482;2022-07-23T03:59:04;100880.97;;;19.62;69.96
4981;BME280;2507;50.392;7.482;2022-07-23T04:01:30;100888.25;;;19.60;69.97
4981;BME280;2507;50.392;7.482;2022-07-23T04:03:55;100889.28;;;19.59;70.19
4981;BME280;2507;50.392;7.482;2022-07-23T04:06:20;100888.69;;;19.48;70.56
4981;BME280;2507;50.392;7.482;2022-07-23T04:08:46;100893.34;;;19.46;70.82
4981;BME280;2507;50.392;7.482;2022-07-23T04:11:11;100885.84;;;19.41;71.16
4981;BME280;2507;50.392;7.482;2022-07-23T04:13:36;100886.47;;;19.35;71.44
4981;BME280;2507;50.392;7.482;2022-07-23T04:16:02;100890.81;;;19.36;71.62
4981;BME280;2507;50.392;7.482;2022-07-23T04:18:28;100900.00;;;19.42;71.36
4981;BME280;2507;50.392;7.482;2022-07-23T04:20:53;100906.72;;;19.54;70.97
4981;BME280;2507;50.392;7.482;2022-07-23T04:23:19;100906.59;;;19.63;70.33
4981;BME280;2507;50.392;7.482;2022-07-23T04:25:45;100900.44;;;19.63;70.52
4981;BME280;2507;50.392;7.482;2022-07-23T04:28:11;100904.19;;;19.78;69.92
4981;BME280;2507;50.392;7.482;2022-07-23T04:30:36;100897.72;;;19.88;69.24
4981;BME280;2507;50.392;7.482;2022-07-23T04:33:01;100902.88;;;19.90;69.47
4981;BME280;2507;50.392;7.482;2022-07-23T04:35:30;100900.94;;;20.08;69.09
4981;BME280;2507;50.392;7.482;2022-07-23T04:37:56;100909.38;;;20.29;68.01
4981;BME280;2507;50.392;7.482;2022-07-23T04:40:21;100902.38;;;20.28;68.02
4981;BME280;2507;50.392;7.482;2022-07-23T04:42:46;100903.50;;;20.17;68.48
4981;BME280;2507;50.392;7.482;2022-07-23T04:45:11;100909.53;;;20.36;68.03
4981;BME280;2507;50.392;7.482;2022-07-23T04:47:36;100920.25;;;20.52;67.68
4981;BME280;2507;50.392;7.482;2022-07-23T04:50:02;100916.28;;;20.80;66.51
4981;BME280;2507;50.392;7.482;2022-07-23T04:52:27;100917.13;;;21.04;65.57
4981;BME280;2507;50.392;7.482;2022-07-23T04:54:52;100911.19;;;21.57;64.04
4981;BME280;2507;50.392;7.482;2022-07-23T04:57:18;100924.91;;;22.01;62.48
4981;BME280;2507;50.392;7.482;2022-07-23T04:59:43;100929.19;;;22.18;61.94
4981;BME280;2507;50.392;7.482;2022-07-23T05:02:08;100920.94;;;22.50;60.65
4981;BME280;2507;50.392;7.482;2022-07-23T05:04:34;100916.28;;;22.75;59.78
4981;BME280;2507;50.392;7.482;2022-07-23T05:06:59;100914.66;;;22.66;60.26
4981;BME280;2507;50.392;7.482;2022-07-23T05:09:25;100915.00;;;23.08;59.61
4981;BME280;2507;50.392;7.482;2022-07-23T05:11:50;100913.38;;;24.23;56.88
4981;BME280;2507;50.392;7.482;2022-07-23T05:14:16;100917.84;;;25.50;52.93
4981;BME280;2507;50.392;7.482;2022-07-23T05:16:41;100924.44;;;26.22;50.34
4981;BME280;2507;50.392;7.482;2022-07-23T05:19:06;100919.97;;;26.55;48.73
4981;BME280;2507;50.392;7.482;2022-07-23T05:21:32;100924.81;;;27.25;47.53
4981;BME280;2507;50.392;7.482;2022-07-23T05:23:57;100926.09;;;27.36;46.95
4981;BME280;2507;50.392;7.482;2022-07-23T05:26:22;100916.53;;;26.94;48.12
4981;BME280;2507;50.392;7.482;2022-07-23T05:28:48;100917.78;;;27.17;47.11
4981;BME280;2507;50.392;7.482;2022-07-23T05:31:13;100913.94;;;27.77;45.36
4981;BME280;2507;50.392;7.482;2022-07-23T05:33:38;100922.91;;;27.65;45.60
4981;BME280;2507;50.392;7.482;2022-07-23T05:36:04;100921.91;;;27.27;46.67
4981;BME280;2507;50.392;7.482;2022-07-23T05:38:30;100922.66;;;27.79;45.74
4981;BME280;2507;50.392;7.482;2022-07-23T05:40:56;100925.00;;;27.63;45.57
4981;BME280;2507;50.392;7.482;2022-07-23T05:43:21;100938.66;;;26.63;47.14
4981;BME280;2507;50.392;7.482;2022-07-23T05:45:47;100938.31;;;26.19;47.83
4981;BME280;2507;50.392;7.482;2022-07-23T05:48:12;100941.91;;;25.58;49.61
4981;BME280;2507;50.392;7.482;2022-07-23T05:50:37;100945.91;;;24.71;52.22
4981;BME280;2507;50.392;7.482;2022-07-23T05:53:03;100945.34;;;24.61;52.65
4981;BME280;2507;50.392;7.482;2022-07-23T05:55:29;100944.09;;;25.20;51.09
4981;BME280;2507;50.392;7.482;2022-07-23T05:57:56;100950.63;;;25.60;49.97
4981;BME280;2507;50.392;7.482;2022-07-23T06:00:21;100962.91;;;25.75;49.61
4981;BME280;2507;50.392;7.482;2022-07-23T06:02:47;100957.59;;;25.33;50.53
4981;BME280;2507;50.392;7.482;2022-07-23T06:05:12;100969.44;;;25.60;50.31
4981;BME280;2507;50.392;7.482;2022-07-23T06:07:37;100954.22;;;25.46;50.20
4981;BME280;2507;50.392;7.482;2022-07-23T06:10:03;100966.28;;;25.07;51.48
4981;BME280;2507;50.392;7.482;2022-07-23T06:12:29;100968.78;;;25.58;50.72
4981;BME280;2507;50.392;7.482;2022-07-23T06:14:54;100973.25;;;26.60;47.94
4981;BME280;2507;50.392;7.482;2022-07-23T06:17:19;100966.28;;;27.57;45.79
4981;BME280;2507;50.392;7.482;2022-07-23T06:19:45;100970.06;;;28.33;44.10
4981;BME280;2507;50.392;7.482;2022-07-23T06:22:10;100969.97;;;28.52;42.73
4981;BME280;2507;50.392;7.482;2022-07-23T06:24:35;100957.72;;;28.05;43.78
4981;BME280;2507;50.392;7.482;2022-07-23T06:27:01;100962.50;;;27.84;44.31
4981;BME280;2507;50.392;7.482;2022-07-23T06:29:26;100961.31;;;27.54;44.21
4981;BME280;2507;50.392;7.482;2022-07-23T06:31:51;100958.31;;;26.51;46.54
4981;BME280;2507;50.392;7.482;2022-07-23T06:34:17;100969.56;;;26.80;46.11
4981;BME280;2507;50.392;7.482;2022-07-23T06:36:42;100973.97;;;27.27;45.22
4981;BME280;2507;50.392;7.482;2022-07-23T06:39:07;100977.25;;;27.75;44.59
4981;BME280;2507;50.392;7.482;2022-07-23T06:41:32;100969.78;;;27.77;44.09
4981;BME280;2507;50.392;7.482;2022-07-23T06:43:58;100982.84;;;26.95;45.50
4981;BME280;2507;50.392;7.482;2022-07-23T06:46:23;100980.84;;;26.43;46.59
4981;BME280;2507;50.392;7.482;2022-07-23T06:48:48;100983.47;;;26.23;46.89
4981;BME280;2507;50.392;7.482;2022-07-23T06:51:14;100978.66;;;26.12;46.86
4981;BME280;2507;50.392;7.482;2022-07-23T06:53:39;100991.22;;;26.46;46.85
4981;BME280;2507;50.392;7.482;2022-07-23T06:56:04;100986.69;;;26.53;45.81
4981;BME280;2507;50.392;7.482;2022-07-23T06:58:30;100994.22;;;25.89;47.11
4981;BME280;2507;50.392;7.482;2022-07-23T07:00:55;100993.47;;;25.68;47.52
4981;BME280;2507;50.392;7.482;2022-07-23T07:03:22;100993.97;;;25.78;47.87
4981;BME280;2507;50.392;7.482;2022-07-23T07:05:47;101008.34;;;26.73;46.31
4981;BME280;2507;50.392;7.482;2022-07-23T07:08:12;101005.31;;;27.41;45.02
4981;BME280;2507;50.392;7.482;2022-07-23T07:10:37;100999.28;;;27.59;44.07
4981;BME280;2507;50.392;7.482;2022-07-23T07:13:03;101002.59;;;28.44;42.54
4981;BME280;2507;50.392;7.482;2022-07-23T07:15:28;101005.75;;;29.16;40.69
4981;BME280;2507;50.392;7.482;2022-07-23T07:17:53;101004.63;;;29.31;40.05
4981;BME280;2507;50.392;7.482;2022-07-23T07:20:19;101013.03;;;29.65;39.34
4981;BME280;2507;50.392;7.482;2022-07-23T07:22:44;101013.38;;;30.36;38.65
4981;BME280;2507;50.392;7.482;2022-07-23T07:25:09;101015.66;;;31.40;36.49
4981;BME280;2507;50.392;7.482;2022-07-23T07:27:35;101010.69;;;31.83;36.16
4981;BME280;2507;50.392;7.482;2022-07-23T07:30:00;101019.72;;;32.46;34.53
4981;BME280;2507;50.392;7.482;2022-07-23T07:32:26;101015.78;;;31.79;34.64
4981;BME280;2507;50.392;7.482;2022-07-23T07:34:51;101017.88;;;31.43;35.46
4981;BME280;2507;50.392;7.482;2022-07-23T07:37:16;101016.28;;;32.39;33.48
4981;BME280;2507;50.392;7.482;2022-07-23T07:39:41;101018.56;;;32.98;33.29
4981;BME280;2507;50.392;7.482;2022-07-23T07:42:07;101026.19;;;33.96;31.42
4981;BME280;2507;50.392;7.482;2022-07-23T07:44:32;101023.97;;;33.76;31.70
4981;BME280;2507;50.392;7.482;2022-07-23T07:46:58;101024.72;;;34.32;30.99
4981;BME280;2507;50.392;7.482;2022-07-23T07:49:23;101029.41;;;35.33;30.11
4981;BME280;2507;50.392;7.482;2022-07-23T07:51:49;101031.13;;;35.80;29.08
4981;BME280;2507;50.392;7.482;2022-07-23T07:54:14;101031.28;;;35.32;28.77
4981;BME280;2507;50.392;7.482;2022-07-23T07:56:39;101025.41;;;34.22;30.08
4981;BME280;2507;50.392;7.482;2022-07-23T07:59:05;101023.91;;;34.74;29.80
4981;BME280;2507;50.392;7.482;2022-07-23T08:01:30;101028.16;;;35.45;29.02
4981;BME280;2507;50.392;7.482;2022-07-23T08:03:56;101032.19;;;34.84;29.30
4981;BME280;2507;50.392;7.482;2022-07-23T08:06:21;101031.03;;;33.44;31.06
4981;BME280;2507;50.392;7.482;2022-07-23T08:08:47;101030.06;;;32.61;31.67
4981;BME280;2507;50.392;7.482;2022-07-23T08:11:12;101034.00;;;32.81;31.96
4981;BME280;2507;50.392;7.482;2022-07-23T08:13:38;101030.13;;;32.77;31.96
4981;BME280;2507;50.392;7.482;2022-07-23T08:16:03;101029.53;;;32.36;31.67
4981;BME280;2507;50.392;7.482;2022-07-23T08:18:29;101033.59;;;31.98;31.91
4981;BME280;2507;50.392;7.482;2022-07-23T08:20:54;101026.28;;;31.87;33.24
4981;BME280;2507;50.392;7.482;2022-07-23T08:23:19;101023.69;;;32.55;32.15
4981;BME280;2507;50.392;7.482;2022-07-23T08:25:45;101026.13;;;32.68;31.49
4981;BME280;2507;50.392;7.482;2022-07-23T08:28:12;101020.81;;;32.22;32.03
4981;BME280;2507;50.392;7.482;2022-07-23T08:30:39;101030.28;;;32.20;32.49
4981;BME280;2507;50.392;7.482;2022-07-23T08:33:07;101039.91;;;31.35;33.38
4981;BME280;2507;50.392;7.482;2022-07-23T08:35:37;101031.94;;;31.63;32.83
4981;BME280;2507;50.392;7.482;2022-07-23T08:38:05;101038.47;;;32.59;32.04
4981;BME280;2507;50.392;7.482;2022-07-23T08:40:36;101037.22;;;33.89;30.54
4981;BME280;2507;50.392;7.482;2022-07-23T08:43:06;101035.44;;;35.35;28.61
4981;BME280;2507;50.392;7.482;2022-07-23T08:45:35;101041.63;;;35.57;27.38
4981;BME280;2507;50.392;7.482;2022-07-23T08:48:01;101037.16;;;33.68;28.88
4981;BME280;2507;50.392;7.482;2022-07-23T08:50:28;101039.63;;;33.36;29.50
4981;BME280;2507;50.392;7.482;2022-07-23T08:52:54;101031.22;;;32.65;29.85
4981;BME280;2507;50.392;7.482;2022-07-23T08:55:21;101034.13;;;32.35;30.31
4981;BME280;2507;50.392;7.482;2022-07-23T08:57:51;101035.22;;;32.74;29.74
4981;BME280;2507;50.392;7.482;2022-07-23T09:00:18;101034.63;;;32.32;30.34
4981;BME280;2507;50.392;7.482;2022-07-23T09:02:45;101038.22;;;31.10;32.35
4981;BME280;2507;50.392;7.482;2022-07-23T09:05:11;101034.75;;;29.83;33.72
4981;BME280;2507;50.392;7.482;2022-07-23T09:08:02;101032.72;;;28.92;34.74
4981;BME280;2507;50.392;7.482;2022-07-23T09:10:23;101036.84;;;27.67;36.51
4981;BME280;2507;50.392;7.482;2022-07-23T09:12:49;101035.41;;;27.38;37.37
4981;BME280;2507;50.392;7.482;2022-07-23T09:15:14;101041.00;;;27.37;36.50
4981;BME280;2507;50.392;7.482;2022-07-23T09:17:42;101036.19;;;27.19;36.13
4981;BME280;2507;50.392;7.482;2022-07-23T09:20:16;101039.97;;;27.38;36.22
4981;BME280;2507;50.392;7.482;2022-07-23T09:22:46;101031.88;;;27.51;37.06
4981;BME280;2507;50.392;7.482;2022-07-23T09:25:14;101029.25;;;28.28;36.05
4981;BME280;2507;50.392;7.482;2022-07-23T09:27:50;101027.56;;;28.33;36.13
4981;BME280;2507;50.392;7.482;2022-07-23T09:30:16;101034.13;;;27.99;36.81
4981;BME280;2507;50.392;7.482;2022-07-23T09:32:42;101035.66;;;28.33;36.12
4981;BME280;2507;50.392;7.482;2022-07-23T09:35:07;101036.78;;;28.19;36.39
4981;BME280;2507;50.392;7.482;2022-07-23T09:37:33;101028.75;;;27.67;37.71
4981;BME280;2507;50.392;7.482;2022-07-23T09:40:09;101042.88;;;27.43;38.58
4981;BME280;2507;50.392;7.482;2022-07-23T09:42:37;101041.13;;;27.02;37.84
4981;BME280;2507;50.392;7.482;2022-07-23T09:45:03;101043.66;;;27.10;38.24
4981;BME280;2507;50.392;7.482;2022-07-23T09:47:31;101045.47;;;26.90;38.20
4981;BME280;2507;50.392;7.482;2022-07-23T09:50:04;101045.84;;;26.74;37.81
4981;BME280;2507;50.392;7.482;2022-07-23T09:52:35;101038.25;;;26.50;37.49
4981;BME280;2507;50.392;7.482;2022-07-23T09:55:03;101038.41;;;26.42;38.16
4981;BME280;2507;50.392;7.482;2022-07-23T09:57:29;101037.41;;;26.43;36.96
4981;BME280;2507;50.392;7.482;2022-07-23T10:00:00;101034.06;;;26.41;36.76
4981;BME280;2507;50.392;7.482;2022-07-23T10:02:25;101040.78;;;26.65;37.93
4981;BME280;2507;50.392;7.482;2022-07-23T10:04:53;101033.91;;;27.29;36.31
4981;BME280;2507;50.392;7.482;2022-07-23T10:07:21;101037.19;;;27.11;38.32
4981;BME280;2507;50.392;7.482;2022-07-23T10:09:50;101032.84;;;27.04;38.40
4981;BME280;2507;50.392;7.482;2022-07-23T10:12:18;101036.38;;;26.98;38.26
4981;BME280;2507;50.392;7.482;2022-07-23T10:15:10;101035.75;;;27.09;38.08
4981;BME280;2507;50.392;7.482;2022-07-23T10:17:36;101036.28;;;26.78;37.32
4981;BME280;2507;50.392;7.482;2022-07-23T10:20:03;101029.44;;;26.69;38.63
4981;BME280;2507;50.392;7.482;2022-07-23T10:22:33;101030.59;;;27.14;36.81
4981;BME280;2507;50.392;7.482;2022-07-23T10:25:15;101020.41;;;27.09;36.44
4981;BME280;2507;50.392;7.482;2022-07-23T10:30:15;101017.31;;;27.78;37.96
4981;BME280;2507;50.392;7.482;2022-07-23T10:38:43;101014.88;;;28.40;35.11
4981;BME280;2507;50.392;7.482;2022-07-23T10:41:13;101011.63;;;28.76;35.48
4981;BME280;2507;50.392;7.482;2022-07-23T10:43:38;101014.69;;;28.42;36.73
4981;BME280;2507;50.392;7.482;2022-07-23T10:46:23;101011.44;;;28.20;37.10
4981;BME280;2507;50.392;7.482;2022-07-23T10:49:24;101004.94;;;28.34;37.43
4981;BME280;2507;50.392;7.482;2022-07-23T10:54:44;101011.00;;;28.16;37.00
4981;BME280;2507;50.392;7.482;2022-07-23T10:57:12;101004.47;;;27.80;37.33
4981;BME280;2507;50.392;7.482;2022-07-23T11:02:38;100994.69;;;27.79;37.02
4981;BME280;2507;50.392;7.482;2022-07-23T11:05:09;100995.28;;;27.87;37.57
4981;BME280;2507;50.392;7.482;2022-07-23T11:07:36;101006.00;;;28.27;37.46
4981;BME280;2507;50.392;7.482;2022-07-23T11:10:03;100997.38;;;28.05;36.40
4981;BME280;2507;50.392;7.482;2022-07-23T11:17:40;101001.34;;;28.53;36.19
4981;BME280;2507;50.392;7.482;2022-07-23T11:20:23;100997.25;;;28.31;36.43
4981;BME280;2507;50.392;7.482;2022-07-23T11:22:57;100999.31;;;28.36;36.62
4981;BME280;2507;50.392;7.482;2022-07-23T11:27:49;100989.84;;;28.64;36.42
4981;BME280;2507;50.392;7.482;2022-07-23T11:32:53;100985.63;;;28.31;36.52
4981;BME280;2507;50.392;7.482;2022-07-23T11:35:27;100980.03;;;28.32;37.04
4981;BME280;2507;50.392;7.482;2022-07-23T11:38:21;100983.13;;;28.36;36.15
4981;BME280;2507;50.392;7.482;2022-07-23T11:40:54;100986.72;;;28.16;36.42
4981;BME280;2507;50.392;7.482;2022-07-23T11:43:21;100986.16;;;27.95;37.43
4981;BME280;2507;50.392;7.482;2022-07-23T11:45:50;100979.63;;;28.22;37.45
4981;BME280;2507;50.392;7.482;2022-07-23T11:48:21;100987.13;;;28.20;36.39
4981;BME280;2507;50.392;7.482;2022-07-23T11:50:47;100987.75;;;28.66;37.07
4981;BME280;2507;50.392;7.482;2022-07-23T11:53:12;100988.09;;;29.07;35.72
4981;BME280;2507;50.392;7.482;2022-07-23T11:55:38;100979.03;;;28.95;35.38
4981;BME280;2507;50.392;7.482;2022-07-23T11:58:04;100989.00;;;28.70;36.20
4981;BME280;2507;50.392;7.482;2022-07-23T12:00:30;100978.72;;;28.85;35.45
4981;BME280;2507;50.392;7.482;2022-07-23T12:02:58;100982.91;;;28.81;35.85
4981;BME280;2507;50.392;7.482;2022-07-23T12:05:29;100976.97;;;28.97;35.44
4981;BME280;2507;50.392;7.482;2022-07-23T12:07:56;100984.91;;;28.92;35.34
4981;BME280;2507;50.392;7.482;2022-07-23T12:10:22;100980.22;;;28.75;35.76
4981;BME280;2507;50.392;7.482;2022-07-23T12:15:20;100984.19;;;29.03;35.21
4981;BME280;2507;50.392;7.482;2022-07-23T12:17:48;100974.63;;;29.32;34.59
4981;BME280;2507;50.392;7.482;2022-07-23T12:20:17;100982.69;;;29.39;34.25
4981;BME280;2507;50.392;7.482;2022-07-23T12:22:47;100977.00;;;29.22;34.18
4981;BME280;2507;50.392;7.482;2022-07-23T12:25:21;100975.59;;;29.13;34.39
4981;BME280;2507;50.392;7.482;2022-07-23T12:28:09;100973.91;;;29.18;34.71
4981;BME280;2507;50.392;7.482;2022-07-23T12:30:40;100975.59;;;29.13;34.35
4981;BME280;2507;50.392;7.482;2022-07-23T12:33:07;100971.34;;;29.48;34.90
4981;BME280;2507;50.392;7.482;2022-07-23T12:35:45;100983.34;;;29.34;33.85
4981;BME280;2507;50.392;7.482;2022-07-23T12:38:12;100976.34;;;29.27;33.78
4981;BME280;2507;50.392;7.482;2022-07-23T12:40:42;100982.19;;;29.48;33.55
4981;BME280;2507;50.392;7.482;2022-07-23T12:43:31;100979.78;;;30.01;33.63
4981;BME280;2507;50.392;7.482;2022-07-23T12:46:01;100976.31;;;30.30;32.52
4981;BME280;2507;50.392;7.482;2022-07-23T12:48:28;100980.91;;;30.11;32.50
4981;BME280;2507;50.392;7.482;2022-07-23T12:50:56;100984.50;;;29.69;32.40
4981;BME280;2507;50.392;7.482;2022-07-23T12:56:08;100980.53;;;29.72;32.86
4981;BME280;2507;50.392;7.482;2022-07-23T12:58:51;100981.28;;;29.05;33.19
4981;BME280;2507;50.392;7.482;2022-07-23T13:03:57;100975.03;;;29.04;33.52
4981;BME280;2507;50.392;7.482;2022-07-23T13:06:23;100976.72;;;29.30;32.79
4981;BME280;2507;50.392;7.482;2022-07-23T13:08:48;100975.47;;;29.33;32.55
4981;BME280;2507;50.392;7.482;2022-07-23T13:11:14;100978.72;;;29.84;32.42
4981;BME280;2507;50.392;7.482;2022-07-23T13:13:39;100979.41;;;29.55;32.50
4981;BME280;2507;50.392;7.482;2022-07-23T13:16:06;100981.75;;;29.27;32.95
4981;BME280;2507;50.392;7.482;2022-07-23T13:18:31;100975.19;;;29.09;33.76
4981;BME280;2507;50.392;7.482;2022-07-23T13:20:57;100982.69;;;29.07;32.53
4981;BME280;2507;50.392;7.482;2022-07-23T13:23:22;100973.19;;;28.98;32.42
4981;BME280;2507;50.392;7.482;2022-07-23T13:25:48;100981.69;;;29.33;32.77
4981;BME280;2507;50.392;7.482;2022-07-23T13:28:15;100976.69;;;29.55;32.76
4981;BME280;2507;50.392;7.482;2022-07-23T13:30:41;100973.47;;;29.71;32.47
4981;BME280;2507;50.392;7.482;2022-07-23T13:33:07;100969.56;;;29.85;32.41
4981;BME280;2507;50.392;7.482;2022-07-23T13:35:34;100976.78;;;30.09;32.39
4981;BME280;2507;50.392;7.482;2022-07-23T13:37:59;100983.38;;;29.77;33.01
4981;BME280;2507;50.392;7.482;2022-07-23T13:40:25;100971.03;;;29.38;32.77